sensor_id;sensor_type;location;lat;lon;timestamp;temperature;humidity
2995;DHT22;35277;49.890;8.222;2022-12-10T00:01:20;21.60;67.20
2995;DHT22;35277;49.890;8.222;2022-12-10T00:03:49;21.60;67.30
2995;DHT22;35277;49.890;8.222;2022-12-10T00:06:19;21.60;67.30
2995;DHT22;35277;49.890;8.222;2022-12-10T00:08:47;21.60;67.30
2995;DHT22;35277;49.890;8.222;2022-12-10T00:11:17;21.60;67.30
2995;DHT22;35277;49.890;8.222;2022-12-10T00:13:45;21.60;67.30
2995;DHT22;35277;49.890;8.222;2022-12-10T00:16:15;21.60;67.30
2995;DHT22;35277;49.890;8.222;2022-12-10T00:18:43;21.60;67.30
2995;DHT22;35277;49.890;8.222;2022-12-10T00:21:14;21.60;67.30
2995;DHT22;35277;49.890;8.222;2022-12-10T00:23:43;21.60;67.30
2995;DHT22;35277;49.890;8.222;2022-12-10T00:26:12;21.60;67.30
2995;DHT22;35277;49.890;8.222;2022-12-10T00:28:41;21.60;67.30
2995;DHT22;35277;49.890;8.222;2022-12-10T00:31:11;21.60;67.30
2995;DHT22;35277;49.890;8.222;2022-12-10T00:33:40;21.60;67.30
2995;DHT22;35277;49.890;8.222;2022-12-10T00:36:12;21.60;67.30
2995;DHT22;35277;49.890;8.222;2022-12-10T00:38:42;21.60;67.30
2995;DHT22;35277;49.890;8.222;2022-12-10T00:41:10;21.60;67.30
2995;DHT22;35277;49.890;8.222;2022-12-10T00:43:38;21.60;67.30
2995;DHT22;35277;49.890;8.222;2022-12-10T00:46:07;21.60;67.30
2995;DHT22;35277;49.890;8.222;2022-12-10T00:48:35;21.60;67.30
2995;DHT22;35277;49.890;8.222;2022-12-10T00:51:05;21.60;67.30
2995;DHT22;35277;49.890;8.222;2022-12-10T00:53:35;21.60;67.30
2995;DHT22;35277;49.890;8.222;2022-12-10T00:56:08;21.60;67.30
2995;DHT22;35277;49.890;8.222;2022-12-10T00:58:37;21.60;67.40
2995;DHT22;35277;49.890;8.222;2022-12-10T01:01:13;21.60;67.30
2995;DHT22;35277;49.890;8.222;2022-12-10T01:03:43;21.60;67.30
2995;DHT22;35277;49.890;8.222;2022-12-10T01:06:13;21.60;67.30
2995;DHT22;35277;49.890;8.222;2022-12-10T01:08:42;21.60;67.30
2995;DHT22;35277;49.890;8.222;2022-12-10T01:11:13;21.60;67.30
2995;DHT22;35277;49.890;8.222;2022-12-10T01:13:42;21.60;67.30
2995;DHT22;35277;49.890;8.222;2022-12-10T01:16:13;21.60;67.30
2995;DHT22;35277;49.890;8.222;2022-12-10T01:18:41;21.60;67.30
2995;DHT22;35277;49.890;8.222;2022-12-10T01:21:11;21.60;67.30
2995;DHT22;35277;49.890;8.222;2022-12-10T01:23:41;21.60;68.20
2995;DHT22;35277;49.890;8.222;2022-12-10T01:26:12;21.60;67.40
2995;DHT22;35277;49.890;8.222;2022-12-10T01:28:40;21.60;67.30
2995;DHT22;35277;49.890;8.222;2022-12-10T01:31:11;21.60;67.30
2995;DHT22;35277;49.890;8.222;2022-12-10T01:33:40;21.60;67.40
2995;DHT22;35277;49.890;8.222;2022-12-10T01:36:10;21.60;67.40
2995;DHT22;35277;49.890;8.222;2022-12-10T01:38:39;21.60;67.40
2995;DHT22;35277;49.890;8.222;2022-12-10T01:41:10;21.60;67.40
2995;DHT22;35277;49.890;8.222;2022-12-10T01:43:56;21.60;67.40
2995;DHT22;35277;49.890;8.222;2022-12-10T01:46:26;21.60;67.40
2995;DHT22;35277;49.890;8.222;2022-12-10T01:48:55;21.60;67.40
2995;DHT22;35277;49.890;8.222;2022-12-10T01:51:25;21.60;67.40
2995;DHT22;35277;49.890;8.222;2022-12-10T01:53:53;21.60;67.40
2995;DHT22;35277;49.890;8.222;2022-12-10T01:56:22;21.60;67.40
2995;DHT22;35277;49.890;8.222;2022-12-10T01:58:51;21.60;67.40
2995;DHT22;35277;49.890;8.222;2022-12-10T02:01:27;21.60;67.40
2995;DHT22;35277;49.890;8.222;2022-12-10T02:04:03;21.60;67.40
2995;DHT22;35277;49.890;8.222;2022-12-10T02:06:42;21.60;67.40
2995;DHT22;35277;49.890;8.222;2022-12-10T02:09:18;21.60;67.40
2995;DHT22;35277;49.890;8.222;2022-12-10T02:11:55;21.60;67.40
2995;DHT22;35277;49.890;8.222;2022-12-10T02:14:31;21.60;67.50
2995;DHT22;35277;49.890;8.222;2022-12-10T02:17:06;21.60;67.50
2995;DHT22;35277;49.890;8.222;2022-12-10T02:19:54;21.60;67.50
2995;DHT22;35277;49.890;8.222;2022-12-10T02:22:27;21.60;67.60
2995;DHT22;35277;49.890;8.222;2022-12-10T02:24:57;21.60;67.60
2995;DHT22;35277;49.890;8.222;2022-12-10T02:27:31;21.60;67.60
2995;DHT22;35277;49.890;8.222;2022-12-10T02:30:04;21.60;67.60
2995;DHT22;35277;49.890;8.222;2022-12-10T02:32:36;21.60;67.60
2995;DHT22;35277;49.890;8.222;2022-12-10T02:35:11;21.60;67.60
2995;DHT22;35277;49.890;8.222;2022-12-10T02:37:44;21.60;67.70
2995;DHT22;35277;49.890;8.222;2022-12-10T02:40:17;21.60;67.70
2995;DHT22;35277;49.890;8.222;2022-12-10T02:42:50;21.60;67.70
2995;DHT22;35277;49.890;8.222;2022-12-10T02:45:23;21.60;67.70
2995;DHT22;35277;49.890;8.222;2022-12-10T02:47:55;21.60;67.70
2995;DHT22;35277;49.890;8.222;2022-12-10T02:50:28;21.60;67.70
2995;DHT22;35277;49.890;8.222;2022-12-10T02:52:55;21.60;67.70
2995;DHT22;35277;49.890;8.222;2022-12-10T02:55:24;21.60;67.70
2995;DHT22;35277;49.890;8.222;2022-12-10T02:58:06;21.60;67.70
2995;DHT22;35277;49.890;8.222;2022-12-10T03:00:41;21.60;67.70
2995;DHT22;35277;49.890;8.222;2022-12-10T03:03:20;21.60;67.70
2995;DHT22;35277;49.890;8.222;2022-12-10T03:05:55;21.60;67.70
2995;DHT22;35277;49.890;8.222;2022-12-10T03:08:26;21.60;67.70
2995;DHT22;35277;49.890;8.222;2022-12-10T03:10:59;21.60;67.70
2995;DHT22;35277;49.890;8.222;2022-12-10T03:13:32;21.60;67.80
2995;DHT22;35277;49.890;8.222;2022-12-10T03:16:02;21.60;67.70
2995;DHT22;35277;49.890;8.222;2022-12-10T03:18:34;21.60;67.70
2995;DHT22;35277;49.890;8.222;2022-12-10T03:21:05;21.60;67.70
2995;DHT22;35277;49.890;8.222;2022-12-10T03:23:36;21.60;67.70
2995;DHT22;35277;49.890;8.222;2022-12-10T03:26:05;21.60;67.70
2995;DHT22;35277;49.890;8.222;2022-12-10T03:28:39;21.60;67.70
2995;DHT22;35277;49.890;8.222;2022-12-10T03:31:10;21.60;67.70
2995;DHT22;35277;49.890;8.222;2022-12-10T03:33:40;21.60;67.70
2995;DHT22;35277;49.890;8.222;2022-12-10T03:36:08;21.60;67.70
2995;DHT22;35277;49.890;8.222;2022-12-10T03:38:37;21.60;67.70
2995;DHT22;35277;49.890;8.222;2022-12-10T03:41:05;21.60;67.70
2995;DHT22;35277;49.890;8.222;2022-12-10T03:43:33;21.60;67.70
2995;DHT22;35277;49.890;8.222;2022-12-10T03:46:00;21.60;67.70
2995;DHT22;35277;49.890;8.222;2022-12-10T03:48:30;21.60;67.70
2995;DHT22;35277;49.890;8.222;2022-12-10T03:50:57;21.60;67.70
2995;DHT22;35277;49.890;8.222;2022-12-10T03:53:25;21.60;67.70
2995;DHT22;35277;49.890;8.222;2022-12-10T03:55:54;21.60;67.70
2995;DHT22;35277;49.890;8.222;2022-12-10T03:58:22;21.60;67.70
2995;DHT22;35277;49.890;8.222;2022-12-10T04:00:50;21.60;67.70
2995;DHT22;35277;49.890;8.222;2022-12-10T04:03:18;21.60;67.60
2995;DHT22;35277;49.890;8.222;2022-12-10T04:05:47;21.60;67.60
2995;DHT22;35277;49.890;8.222;2022-12-10T04:08:14;21.60;67.70
2995;DHT22;35277;49.890;8.222;2022-12-10T04:10:42;21.60;67.60
2995;DHT22;35277;49.890;8.222;2022-12-10T04:13:10;21.60;67.60
2995;DHT22;35277;49.890;8.222;2022-12-10T04:15:56;21.60;67.60
2995;DHT22;35277;49.890;8.222;2022-12-10T04:18:41;21.60;67.60
2995;DHT22;35277;49.890;8.222;2022-12-10T04:21:10;21.60;67.60
2995;DHT22;35277;49.890;8.222;2022-12-10T04:23:55;21.60;67.60
2995;DHT22;35277;49.890;8.222;2022-12-10T04:26:41;21.60;67.60
2995;DHT22;35277;49.890;8.222;2022-12-10T04:29:23;21.60;67.60
2995;DHT22;35277;49.890;8.222;2022-12-10T04:31:51;21.60;67.60
2995;DHT22;35277;49.890;8.222;2022-12-10T04:34:19;21.60;67.60
2995;DHT22;35277;49.890;8.222;2022-12-10T04:36:49;21.60;67.60
2995;DHT22;35277;49.890;8.222;2022-12-10T04:39:17;21.60;67.60
2995;DHT22;35277;49.890;8.222;2022-12-10T04:41:47;21.60;67.60
2995;DHT22;35277;49.890;8.222;2022-12-10T04:44:15;21.60;67.60
2995;DHT22;35277;49.890;8.222;2022-12-10T04:46:44;21.60;67.60
2995;DHT22;35277;49.890;8.222;2022-12-10T04:49:12;21.60;67.60
2995;DHT22;35277;49.890;8.222;2022-12-10T04:51:40;21.60;67.60
2995;DHT22;35277;49.890;8.222;2022-12-10T04:54:09;21.60;67.60
2995;DHT22;35277;49.890;8.222;2022-12-10T04:56:37;21.60;67.60
2995;DHT22;35277;49.890;8.222;2022-12-10T04:59:05;21.60;67.60
2995;DHT22;35277;49.890;8.222;2022-12-10T05:01:34;21.60;67.60
2995;DHT22;35277;49.890;8.222;2022-12-10T05:04:03;21.60;67.60
2995;DHT22;35277;49.890;8.222;2022-12-10T05:06:32;21.60;67.60
2995;DHT22;35277;49.890;8.222;2022-12-10T05:09:00;21.60;67.50
2995;DHT22;35277;49.890;8.222;2022-12-10T05:11:31;21.60;67.50
2995;DHT22;35277;49.890;8.222;2022-12-10T05:13:59;21.60;67.50
2995;DHT22;35277;49.890;8.222;2022-12-10T05:16:29;21.60;67.40
2995;DHT22;35277;49.890;8.222;2022-12-10T05:18:59;21.60;67.40
2995;DHT22;35277;49.890;8.222;2022-12-10T05:21:28;21.60;67.30
2995;DHT22;35277;49.890;8.222;2022-12-10T05:24:17;21.60;67.20
2995;DHT22;35277;49.890;8.222;2022-12-10T05:26:46;21.60;67.10
2995;DHT22;35277;49.890;8.222;2022-12-10T05:29:17;21.60;67.10
2995;DHT22;35277;49.890;8.222;2022-12-10T05:31:45;21.60;67.00
2995;DHT22;35277;49.890;8.222;2022-12-10T05:34:13;21.60;67.00
2995;DHT22;35277;49.890;8.222;2022-12-10T05:36:41;21.60;66.90
2995;DHT22;35277;49.890;8.222;2022-12-10T05:39:10;21.60;66.90
2995;DHT22;35277;49.890;8.222;2022-12-10T05:41:39;21.60;66.70
2995;DHT22;35277;49.890;8.222;2022-12-10T05:44:09;21.60;66.70
2995;DHT22;35277;49.890;8.222;2022-12-10T05:46:37;21.60;66.60
2995;DHT22;35277;49.890;8.222;2022-12-10T05:49:06;21.60;66.60
2995;DHT22;35277;49.890;8.222;2022-12-10T05:51:36;21.60;66.50
2995;DHT22;35277;49.890;8.222;2022-12-10T05:54:06;21.60;66.40
2995;DHT22;35277;49.890;8.222;2022-12-10T05:56:36;21.60;66.40
2995;DHT22;35277;49.890;8.222;2022-12-10T05:59:04;21.60;66.40
2995;DHT22;35277;49.890;8.222;2022-12-10T06:01:39;21.60;66.30
2995;DHT22;35277;49.890;8.222;2022-12-10T06:04:09;21.60;66.30
2995;DHT22;35277;49.890;8.222;2022-12-10T06:06:38;21.60;66.20
2995;DHT22;35277;49.890;8.222;2022-12-10T06:09:07;21.60;66.20
2995;DHT22;35277;49.890;8.222;2022-12-10T06:11:38;21.60;66.10
2995;DHT22;35277;49.890;8.222;2022-12-10T06:14:05;21.60;66.00
2995;DHT22;35277;49.890;8.222;2022-12-10T06:16:33;21.60;66.00
2995;DHT22;35277;49.890;8.222;2022-12-10T06:19:02;21.60;65.90
2995;DHT22;35277;49.890;8.222;2022-12-10T06:21:30;21.60;65.90
2995;DHT22;35277;49.890;8.222;2022-12-10T06:23:58;21.60;65.80
2995;DHT22;35277;49.890;8.222;2022-12-10T06:26:25;21.60;65.80
2995;DHT22;35277;49.890;8.222;2022-12-10T06:28:56;21.60;65.70
2995;DHT22;35277;49.890;8.222;2022-12-10T06:31:23;21.60;65.70
2995;DHT22;35277;49.890;8.222;2022-12-10T06:33:52;21.60;65.70
2995;DHT22;35277;49.890;8.222;2022-12-10T06:36:21;21.60;65.60
2995;DHT22;35277;49.890;8.222;2022-12-10T06:38:49;21.60;65.50
2995;DHT22;35277;49.890;8.222;2022-12-10T06:41:18;21.60;65.50
2995;DHT22;35277;49.890;8.222;2022-12-10T06:43:47;21.60;65.40
2995;DHT22;35277;49.890;8.222;2022-12-10T06:46:17;21.50;65.30
2995;DHT22;35277;49.890;8.222;2022-12-10T06:48:45;21.50;65.30
2995;DHT22;35277;49.890;8.222;2022-12-10T06:51:13;21.60;65.30
2995;DHT22;35277;49.890;8.222;2022-12-10T06:53:43;21.60;66.10
2995;DHT22;35277;49.890;8.222;2022-12-10T06:56:12;21.50;65.10
2995;DHT22;35277;49.890;8.222;2022-12-10T06:58:41;21.50;65.90
2995;DHT22;35277;49.890;8.222;2022-12-10T07:01:11;21.60;65.10
2995;DHT22;35277;49.890;8.222;2022-12-10T07:03:40;21.50;65.00
2995;DHT22;35277;49.890;8.222;2022-12-10T07:06:10;21.50;65.00
2995;DHT22;35277;49.890;8.222;2022-12-10T07:08:38;21.50;65.00
2995;DHT22;35277;49.890;8.222;2022-12-10T07:11:08;21.50;64.90
2995;DHT22;35277;49.890;8.222;2022-12-10T07:13:38;21.50;65.60
2995;DHT22;35277;49.890;8.222;2022-12-10T07:16:12;21.60;64.90
2995;DHT22;35277;49.890;8.222;2022-12-10T07:18:40;21.50;64.80
2995;DHT22;35277;49.890;8.222;2022-12-10T07:21:15;21.50;64.70
2995;DHT22;35277;49.890;8.222;2022-12-10T07:23:43;21.50;64.70
2995;DHT22;35277;49.890;8.222;2022-12-10T07:26:12;21.50;64.70
2995;DHT22;35277;49.890;8.222;2022-12-10T07:28:40;21.50;63.60
2995;DHT22;35277;49.890;8.222;2022-12-10T07:31:19;21.30;60.60
2995;DHT22;35277;49.890;8.222;2022-12-10T07:33:47;21.20;61.00
2995;DHT22;35277;49.890;8.222;2022-12-10T07:36:15;21.10;61.70
2995;DHT22;35277;49.890;8.222;2022-12-10T07:38:43;21.10;62.20
2995;DHT22;35277;49.890;8.222;2022-12-10T07:41:12;21.10;63.50
2995;DHT22;35277;49.890;8.222;2022-12-10T07:43:42;21.10;62.80
2995;DHT22;35277;49.890;8.222;2022-12-10T07:46:11;21.20;62.90
2995;DHT22;35277;49.890;8.222;2022-12-10T07:48:41;21.20;63.00
2995;DHT22;35277;49.890;8.222;2022-12-10T07:51:10;21.20;63.00
2995;DHT22;35277;49.890;8.222;2022-12-10T07:53:38;21.30;63.30
2995;DHT22;35277;49.890;8.222;2022-12-10T07:56:06;21.30;63.30
2995;DHT22;35277;49.890;8.222;2022-12-10T07:58:36;21.30;63.40
2995;DHT22;35277;49.890;8.222;2022-12-10T08:01:07;21.30;63.40
2995;DHT22;35277;49.890;8.222;2022-12-10T08:03:35;21.30;63.40
2995;DHT22;35277;49.890;8.222;2022-12-10T08:06:05;21.40;63.60
2995;DHT22;35277;49.890;8.222;2022-12-10T08:08:34;21.40;63.60
2995;DHT22;35277;49.890;8.222;2022-12-10T08:11:04;21.40;63.60
2995;DHT22;35277;49.890;8.222;2022-12-10T08:13:33;21.40;63.50
2995;DHT22;35277;49.890;8.222;2022-12-10T08:16:03;21.40;63.50
2995;DHT22;35277;49.890;8.222;2022-12-10T08:18:32;21.40;63.50
2995;DHT22;35277;49.890;8.222;2022-12-10T08:21:03;21.40;63.50
2995;DHT22;35277;49.890;8.222;2022-12-10T08:23:31;21.40;63.50
2995;DHT22;35277;49.890;8.222;2022-12-10T08:26:02;21.50;63.50
2995;DHT22;35277;49.890;8.222;2022-12-10T08:28:30;21.50;63.50
2995;DHT22;35277;49.890;8.222;2022-12-10T08:30:58;21.50;63.50
2995;DHT22;35277;49.890;8.222;2022-12-10T08:33:27;21.50;63.40
2995;DHT22;35277;49.890;8.222;2022-12-10T08:35:57;21.50;63.40
2995;DHT22;35277;49.890;8.222;2022-12-10T08:38:25;21.50;63.30
2995;DHT22;35277;49.890;8.222;2022-12-10T08:40:56;21.50;63.30
2995;DHT22;35277;49.890;8.222;2022-12-10T08:43:24;21.50;63.30
2995;DHT22;35277;49.890;8.222;2022-12-10T08:45:51;21.50;63.20
2995;DHT22;35277;49.890;8.222;2022-12-10T08:48:20;21.50;63.20
2995;DHT22;35277;49.890;8.222;2022-12-10T08:50:51;21.50;63.20
2995;DHT22;35277;49.890;8.222;2022-12-10T08:53:19;21.60;63.30
2995;DHT22;35277;49.890;8.222;2022-12-10T08:55:49;21.50;63.20
2995;DHT22;35277;49.890;8.222;2022-12-10T08:58:18;21.50;63.10
2995;DHT22;35277;49.890;8.222;2022-12-10T09:00:46;21.60;63.20
2995;DHT22;35277;49.890;8.222;2022-12-10T09:03:14;21.60;63.20
2995;DHT22;35277;49.890;8.222;2022-12-10T09:05:43;21.60;63.10
2995;DHT22;35277;49.890;8.222;2022-12-10T09:08:12;21.60;63.10
2995;DHT22;35277;49.890;8.222;2022-12-10T09:10:41;21.60;63.00
2995;DHT22;35277;49.890;8.222;2022-12-10T09:13:09;21.60;63.00
2995;DHT22;35277;49.890;8.222;2022-12-10T09:15:37;21.60;62.90
2995;DHT22;35277;49.890;8.222;2022-12-10T09:18:04;21.60;62.90
2995;DHT22;35277;49.890;8.222;2022-12-10T09:20:32;21.60;62.90
2995;DHT22;35277;49.890;8.222;2022-12-10T09:23:00;21.60;62.80
2995;DHT22;35277;49.890;8.222;2022-12-10T09:25:29;21.60;62.80
2995;DHT22;35277;49.890;8.222;2022-12-10T09:27:57;21.60;62.70
2995;DHT22;35277;49.890;8.222;2022-12-10T09:30:24;21.60;62.70
2995;DHT22;35277;49.890;8.222;2022-12-10T09:32:52;21.60;62.70
2995;DHT22;35277;49.890;8.222;2022-12-10T09:35:20;21.60;62.70
2995;DHT22;35277;49.890;8.222;2022-12-10T09:37:48;21.60;62.70
2995;DHT22;35277;49.890;8.222;2022-12-10T09:40:17;21.60;62.60
2995;DHT22;35277;49.890;8.222;2022-12-10T09:42:52;21.60;62.60
2995;DHT22;35277;49.890;8.222;2022-12-10T09:45:29;21.60;62.60
2995;DHT22;35277;49.890;8.222;2022-12-10T09:48:04;21.60;62.60
2995;DHT22;35277;49.890;8.222;2022-12-10T09:50:36;21.60;62.60
2995;DHT22;35277;49.890;8.222;2022-12-10T09:53:12;21.60;62.60
2995;DHT22;35277;49.890;8.222;2022-12-10T09:55:45;21.60;62.60
2995;DHT22;35277;49.890;8.222;2022-12-10T09:58:18;21.60;62.20
2995;DHT22;35277;49.890;8.222;2022-12-10T10:00:57;21.60;61.90
2995;DHT22;35277;49.890;8.222;2022-12-10T10:03:25;21.60;61.60
2995;DHT22;35277;49.890;8.222;2022-12-10T10:05:54;21.60;61.40
2995;DHT22;35277;49.890;8.222;2022-12-10T10:08:27;21.60;61.20
2995;DHT22;35277;49.890;8.222;2022-12-10T10:10:56;21.60;61.10
2995;DHT22;35277;49.890;8.222;2022-12-10T10:13:31;21.60;61.00
2995;DHT22;35277;49.890;8.222;2022-12-10T10:16:16;21.60;60.80
2995;DHT22;35277;49.890;8.222;2022-12-10T10:18:46;21.60;60.70
2995;DHT22;35277;49.890;8.222;2022-12-10T10:21:19;21.60;60.60
2995;DHT22;35277;49.890;8.222;2022-12-10T10:23:48;21.50;60.40
2995;DHT22;35277;49.890;8.222;2022-12-10T10:26:16;21.60;60.40
2995;DHT22;35277;49.890;8.222;2022-12-10T10:28:45;21.60;60.30
2995;DHT22;35277;49.890;8.222;2022-12-10T10:31:18;21.60;60.20
2995;DHT22;35277;49.890;8.222;2022-12-10T10:33:51;21.50;60.00
2995;DHT22;35277;49.890;8.222;2022-12-10T10:36:25;21.50;59.90
2995;DHT22;35277;49.890;8.222;2022-12-10T10:38:53;21.60;59.90
2995;DHT22;35277;49.890;8.222;2022-12-10T10:41:23;21.50;59.70
2995;DHT22;35277;49.890;8.222;2022-12-10T10:43:59;21.50;59.60
2995;DHT22;35277;49.890;8.222;2022-12-10T10:46:33;21.50;59.50
2995;DHT22;35277;49.890;8.222;2022-12-10T10:49:19;21.50;59.50
2995;DHT22;35277;49.890;8.222;2022-12-10T10:51:49;21.50;59.30
2995;DHT22;35277;49.890;8.222;2022-12-10T10:54:32;21.50;59.20
2995;DHT22;35277;49.890;8.222;2022-12-10T10:57:06;21.50;59.20
2995;DHT22;35277;49.890;8.222;2022-12-10T10:59:39;21.50;59.00
2995;DHT22;35277;49.890;8.222;2022-12-10T11:02:18;21.50;58.90
2995;DHT22;35277;49.890;8.222;2022-12-10T11:04:48;21.50;58.90
2995;DHT22;35277;49.890;8.222;2022-12-10T11:07:21;21.50;58.80
2995;DHT22;35277;49.890;8.222;2022-12-10T11:09:51;21.50;58.80
2995;DHT22;35277;49.890;8.222;2022-12-10T11:12:33;21.50;58.90
2995;DHT22;35277;49.890;8.222;2022-12-10T11:15:28;21.50;58.90
2995;DHT22;35277;49.890;8.222;2022-12-10T11:17:56;21.50;58.90
2995;DHT22;35277;49.890;8.222;2022-12-10T11:20:27;21.50;58.90
2995;DHT22;35277;49.890;8.222;2022-12-10T11:22:56;21.50;59.10
2995;DHT22;35277;49.890;8.222;2022-12-10T11:25:35;21.60;59.10
2995;DHT22;35277;49.890;8.222;2022-12-10T11:28:17;21.60;59.10
2995;DHT22;35277;49.890;8.222;2022-12-10T11:30:57;21.60;59.20
2995;DHT22;35277;49.890;8.222;2022-12-10T11:33:31;21.60;59.20
2995;DHT22;35277;49.890;8.222;2022-12-10T11:36:06;21.60;59.30
2995;DHT22;35277;49.890;8.222;2022-12-10T11:38:47;21.60;59.30
2995;DHT22;35277;49.890;8.222;2022-12-10T11:41:22;21.60;59.30
2995;DHT22;35277;49.890;8.222;2022-12-10T11:44:15;21.60;59.30
2995;DHT22;35277;49.890;8.222;2022-12-10T11:47:08;21.60;59.40
2995;DHT22;35277;49.890;8.222;2022-12-10T11:49:47;21.70;59.50
2995;DHT22;35277;49.890;8.222;2022-12-10T11:52:40;21.70;59.60
2995;DHT22;35277;49.890;8.222;2022-12-10T11:55:21;21.70;59.60
2995;DHT22;35277;49.890;8.222;2022-12-10T11:58:01;21.70;59.70
2995;DHT22;35277;49.890;8.222;2022-12-10T12:00:39;21.70;59.80
2995;DHT22;35277;49.890;8.222;2022-12-10T12:03:26;21.70;59.80
2995;DHT22;35277;49.890;8.222;2022-12-10T12:06:10;21.70;59.80
2995;DHT22;35277;49.890;8.222;2022-12-10T12:08:51;21.70;59.90
2995;DHT22;35277;49.890;8.222;2022-12-10T12:11:34;21.70;60.00
2995;DHT22;35277;49.890;8.222;2022-12-10T12:14:07;21.80;60.40
2995;DHT22;35277;49.890;8.222;2022-12-10T12:16:44;21.80;60.70
2995;DHT22;35277;49.890;8.222;2022-12-10T12:19:18;21.80;61.30
2995;DHT22;35277;49.890;8.222;2022-12-10T12:21:49;21.90;62.00
2995;DHT22;35277;49.890;8.222;2022-12-10T12:24:20;21.90;62.20
2995;DHT22;35277;49.890;8.222;2022-12-10T12:26:52;22.00;62.40
2995;DHT22;35277;49.890;8.222;2022-12-10T12:29:26;22.00;62.40
2995;DHT22;35277;49.890;8.222;2022-12-10T12:32:05;22.00;62.40
2995;DHT22;35277;49.890;8.222;2022-12-10T12:34:44;22.00;62.50
2995;DHT22;35277;49.890;8.222;2022-12-10T12:37:16;22.00;62.40
2995;DHT22;35277;49.890;8.222;2022-12-10T12:39:50;22.00;62.30
2995;DHT22;35277;49.890;8.222;2022-12-10T12:42:25;22.00;62.20
2995;DHT22;35277;49.890;8.222;2022-12-10T12:45:00;22.00;62.10
2995;DHT22;35277;49.890;8.222;2022-12-10T12:47:36;22.10;62.20
2995;DHT22;35277;49.890;8.222;2022-12-10T12:50:16;22.10;62.10
2995;DHT22;35277;49.890;8.222;2022-12-10T12:52:50;22.10;62.10
2995;DHT22;35277;49.890;8.222;2022-12-10T12:55:24;22.10;62.00
2995;DHT22;35277;49.890;8.222;2022-12-10T12:58:02;22.10;61.80
2995;DHT22;35277;49.890;8.222;2022-12-10T13:00:33;22.10;61.40
2995;DHT22;35277;49.890;8.222;2022-12-10T13:03:17;22.10;61.00
2995;DHT22;35277;49.890;8.222;2022-12-10T13:05:47;22.10;61.00
2995;DHT22;35277;49.890;8.222;2022-12-10T13:08:25;22.00;61.10
2995;DHT22;35277;49.890;8.222;2022-12-10T13:10:56;22.00;60.80
2995;DHT22;35277;49.890;8.222;2022-12-10T13:13:28;22.00;60.50
2995;DHT22;35277;49.890;8.222;2022-12-10T13:16:36;22.00;60.20
2995;DHT22;35277;49.890;8.222;2022-12-10T13:19:27;22.00;59.90
2995;DHT22;35277;49.890;8.222;2022-12-10T13:25:11;21.90;59.70
2995;DHT22;35277;49.890;8.222;2022-12-10T13:27:40;21.90;59.60
2995;DHT22;35277;49.890;8.222;2022-12-10T13:30:32;21.90;59.60
2995;DHT22;35277;49.890;8.222;2022-12-10T13:33:14;21.90;59.60
2995;DHT22;35277;49.890;8.222;2022-12-10T13:35:51;21.90;59.60
2995;DHT22;35277;49.890;8.222;2022-12-10T13:38:23;21.90;59.70
2995;DHT22;35277;49.890;8.222;2022-12-10T13:41:02;21.90;59.60
2995;DHT22;35277;49.890;8.222;2022-12-10T13:43:56;21.90;59.60
2995;DHT22;35277;49.890;8.222;2022-12-10T13:46:57;21.90;59.60
2995;DHT22;35277;49.890;8.222;2022-12-10T13:49:26;21.90;59.70
2995;DHT22;35277;49.890;8.222;2022-12-10T13:51:58;21.90;59.70
2995;DHT22;35277;49.890;8.222;2022-12-10T14:00:49;21.90;59.80
2995;DHT22;35277;49.890;8.222;2022-12-10T14:03:46;21.90;59.80
2995;DHT22;35277;49.890;8.222;2022-12-10T14:06:17;21.90;59.90
2995;DHT22;35277;49.890;8.222;2022-12-10T14:08:54;21.90;59.90
2995;DHT22;35277;49.890;8.222;2022-12-10T14:11:27;21.90;59.90
2995;DHT22;35277;49.890;8.222;2022-12-10T14:14:05;21.90;60.00
2995;DHT22;35277;49.890;8.222;2022-12-10T14:16:34;21.90;60.00
2995;DHT22;35277;49.890;8.222;2022-12-10T14:19:04;21.90;61.00
2995;DHT22;35277;49.890;8.222;2022-12-10T14:21:34;21.90;60.20
2995;DHT22;35277;49.890;8.222;2022-12-10T14:24:03;21.90;60.30
2995;DHT22;35277;49.890;8.222;2022-12-10T14:26:33;21.90;60.30
2995;DHT22;35277;49.890;8.222;2022-12-10T14:29:20;21.90;60.30
2995;DHT22;35277;49.890;8.222;2022-12-10T14:31:55;21.90;60.40
2995;DHT22;35277;49.890;8.222;2022-12-10T14:34:26;21.90;60.40
2995;DHT22;35277;49.890;8.222;2022-12-10T14:36:57;21.90;60.40
2995;DHT22;35277;49.890;8.222;2022-12-10T14:39:27;21.90;60.50
2995;DHT22;35277;49.890;8.222;2022-12-10T14:41:57;21.90;60.40
2995;DHT22;35277;49.890;8.222;2022-12-10T14:44:29;21.90;60.50
2995;DHT22;35277;49.890;8.222;2022-12-10T14:47:09;21.90;60.50
2995;DHT22;35277;49.890;8.222;2022-12-10T14:49:43;21.90;60.50
2995;DHT22;35277;49.890;8.222;2022-12-10T14:52:13;21.90;60.50
2995;DHT22;35277;49.890;8.222;2022-12-10T14:54:42;21.90;60.50
2995;DHT22;35277;49.890;8.222;2022-12-10T14:57:16;21.80;60.40
2995;DHT22;35277;49.890;8.222;2022-12-10T14:59:52;21.80;60.50
2995;DHT22;35277;49.890;8.222;2022-12-10T15:02:26;21.80;60.50
2995;DHT22;35277;49.890;8.222;2022-12-10T15:04:55;21.80;60.50
2995;DHT22;35277;49.890;8.222;2022-12-10T15:07:26;21.80;60.50
2995;DHT22;35277;49.890;8.222;2022-12-10T15:09:54;21.80;61.30
2995;DHT22;35277;49.890;8.222;2022-12-10T15:12:31;21.80;60.50
2995;DHT22;35277;49.890;8.222;2022-12-10T15:15:09;21.80;60.50
2995;DHT22;35277;49.890;8.222;2022-12-10T15:17:41;21.80;60.60
2995;DHT22;35277;49.890;8.222;2022-12-10T15:20:24;21.80;60.60
2995;DHT22;35277;49.890;8.222;2022-12-10T15:22:52;21.80;60.70
2995;DHT22;35277;49.890;8.222;2022-12-10T15:25:26;21.80;60.70
2995;DHT22;35277;49.890;8.222;2022-12-10T15:27:56;21.80;60.80
2995;DHT22;35277;49.890;8.222;2022-12-10T15:30:33;21.70;60.70
2995;DHT22;35277;49.890;8.222;2022-12-10T15:33:02;21.70;60.80
2995;DHT22;35277;49.890;8.222;2022-12-10T15:35:29;21.70;60.70
2995;DHT22;35277;49.890;8.222;2022-12-10T15:38:02;21.70;60.80
2995;DHT22;35277;49.890;8.222;2022-12-10T15:40:31;21.70;60.80
2995;DHT22;35277;49.890;8.222;2022-12-10T15:43:12;21.70;60.80
2995;DHT22;35277;49.890;8.222;2022-12-10T15:45:42;21.70;60.80
2995;DHT22;35277;49.890;8.222;2022-12-10T15:48:12;21.70;60.80
2995;DHT22;35277;49.890;8.222;2022-12-10T15:50:42;21.70;60.80
2995;DHT22;35277;49.890;8.222;2022-12-10T15:53:12;21.70;60.70
2995;DHT22;35277;49.890;8.222;2022-12-10T15:55:40;21.60;60.50
2995;DHT22;35277;49.890;8.222;2022-12-10T15:58:10;21.60;60.40
2995;DHT22;35277;49.890;8.222;2022-12-10T16:00:39;21.60;60.30
2995;DHT22;35277;49.890;8.222;2022-12-10T16:03:13;21.60;60.20
2995;DHT22;35277;49.890;8.222;2022-12-10T16:05:41;21.60;60.00
2995;DHT22;35277;49.890;8.222;2022-12-10T16:08:13;21.60;59.90
2995;DHT22;35277;49.890;8.222;2022-12-10T16:10:44;21.50;59.70
2995;DHT22;35277;49.890;8.222;2022-12-10T16:13:16;21.50;59.60
2995;DHT22;35277;49.890;8.222;2022-12-10T16:15:46;21.50;59.50
2995;DHT22;35277;49.890;8.222;2022-12-10T16:18:17;21.50;59.50
2995;DHT22;35277;49.890;8.222;2022-12-10T16:20:45;21.50;59.40
2995;DHT22;35277;49.890;8.222;2022-12-10T16:23:13;21.50;59.40
2995;DHT22;35277;49.890;8.222;2022-12-10T16:25:42;21.50;59.40